createdAt,value
2019-03-26T00:01:12.666Z,15.35
2019-03-26T00:03:43.443Z,20.92
2019-03-26T00:06:14.415Z,12.55
2019-03-26T00:08:45.411Z,13.72
2019-03-26T00:11:16.115Z,21.55
2019-03-26T00:13:46.952Z,16.35
2019-03-26T00:16:17.765Z,16.75
2019-03-26T00:18:48.791Z,18.95
2019-03-26T00:21:19.979Z,17.90
2019-03-26T00:23:50.815Z,15.30
2019-03-26T00:26:21.580Z,14.35
2019-03-26T00:28:52.424Z,15.85
2019-03-26T00:31:23.304Z,17.90
2019-03-26T00:33:54.171Z,16.80
2019-03-26T00:36:25.054Z,17.77
2019-03-26T00:38:55.758Z,18.40
2019-03-26T00:41:26.606Z,20.97
2019-03-26T00:43:57.370Z,18.05
2019-03-26T00:46:28.413Z,15.13
2019-03-26T00:48:59.054Z,16.10
2019-03-26T00:51:30.208Z,18.85
2019-03-26T00:54:00.961Z,14.18
2019-03-26T00:56:31.874Z,21.48
2019-03-26T00:59:02.606Z,17.05
2019-03-26T01:01:33.583Z,19.82
2019-03-26T01:04:04.867Z,21.12
2019-03-26T01:06:35.815Z,20.00
2019-03-26T01:09:09.050Z,20.02
2019-03-26T01:11:40.192Z,17.95
2019-03-26T01:14:11.307Z,20.23
2019-03-26T01:16:42.326Z,21.37
2019-03-26T01:19:13.146Z,19.32
2019-03-26T01:21:44.083Z,22.05
2019-03-26T01:24:14.798Z,26.12
2019-03-26T01:26:45.573Z,21.57
2019-03-26T01:29:16.304Z,17.48
2019-03-26T01:31:47.191Z,18.45
2019-03-26T01:34:17.842Z,19.12
2019-03-26T01:36:48.696Z,18.75
2019-03-26T01:39:19.416Z,20.80
2019-03-26T01:41:50.195Z,23.95
2019-03-26T01:44:20.813Z,20.30
2019-03-26T01:46:51.529Z,21.62
2019-03-26T01:49:22.264Z,28.17
2019-03-26T01:51:52.935Z,22.22
2019-03-26T01:54:23.629Z,25.08
2019-03-26T01:56:54.309Z,24.32
2019-03-26T01:59:26.763Z,26.85
2019-03-26T02:01:57.568Z,19.67
2019-03-26T02:04:28.407Z,22.25
2019-03-26T02:06:59.197Z,20.27
2019-03-26T02:09:30.115Z,21.12
2019-03-26T02:12:00.866Z,22.77
2019-03-26T02:14:31.852Z,21.57
2019-03-26T02:17:02.972Z,24.10
2019-03-26T02:19:33.877Z,23.05
2019-03-26T02:22:04.736Z,24.23
2019-03-26T02:24:35.705Z,22.42
2019-03-26T02:27:06.505Z,21.10
2019-03-26T02:29:37.278Z,18.80
2019-03-26T02:32:07.992Z,20.82
2019-03-26T02:34:38.766Z,22.20
2019-03-26T02:37:09.525Z,22.17
2019-03-26T02:39:40.223Z,18.57
2019-03-26T02:42:10.944Z,21.95
2019-03-26T02:44:41.764Z,26.40
2019-03-26T02:47:12.543Z,23.83
2019-03-26T02:49:43.433Z,26.95
2019-03-26T02:52:14.499Z,22.25
2019-03-26T02:54:45.675Z,22.93
2019-03-26T02:57:16.834Z,20.97
2019-03-26T02:59:47.621Z,25.15
2019-03-26T03:02:18.782Z,22.10
2019-03-26T03:04:49.577Z,22.77
2019-03-26T03:07:20.608Z,24.57
2019-03-26T03:09:51.498Z,26.30
2019-03-26T03:12:22.425Z,20.60
2019-03-26T03:14:53.548Z,27.17
2019-03-26T03:17:24.453Z,20.27
2019-03-26T03:19:55.297Z,21.48
2019-03-26T03:22:26.279Z,23.62
2019-03-26T03:24:57.234Z,25.80
2019-03-26T03:27:28.158Z,25.62
2019-03-26T03:29:59.014Z,24.98
2019-03-26T03:32:29.863Z,24.67
2019-03-26T03:35:00.928Z,23.67
2019-03-26T03:37:32.022Z,22.80
2019-03-26T03:40:03.119Z,22.58
2019-03-26T03:42:37.184Z,19.12
2019-03-26T03:45:08.911Z,25.57
2019-03-26T03:47:39.959Z,20.65
2019-03-26T03:50:12.588Z,18.75
2019-03-26T03:52:43.636Z,23.02
2019-03-26T03:55:14.391Z,20.27
2019-03-26T03:57:47.724Z,19.48
2019-03-26T04:00:36.765Z,26.95
2019-03-26T04:03:09.663Z,28.27
2019-03-26T04:05:40.315Z,24.47
2019-03-26T04:08:11.011Z,20.88
2019-03-26T04:10:41.646Z,17.23
2019-03-26T04:13:12.429Z,25.88
2019-03-26T04:15:43.272Z,24.23
2019-03-26T04:18:14.167Z,22.80
2019-03-26T04:20:44.851Z,19.35
2019-03-26T04:23:15.599Z,20.57
2019-03-26T04:25:46.261Z,18.87
2019-03-26T04:28:17.047Z,24.10
2019-03-26T04:30:47.723Z,25.90
2019-03-26T04:33:18.513Z,24.40
2019-03-26T04:35:49.155Z,19.20
2019-03-26T04:38:19.846Z,21.75
2019-03-26T04:40:50.566Z,19.62
2019-03-26T04:43:21.311Z,23.27
2019-03-26T04:45:51.882Z,28.70
2019-03-26T04:48:22.696Z,18.42
2019-03-26T04:50:53.393Z,26.10
2019-03-26T04:53:24.034Z,24.67
2019-03-26T04:55:54.831Z,24.82
2019-03-26T04:58:25.635Z,23.67
2019-03-26T05:00:56.329Z,20.75
2019-03-26T05:03:27.142Z,27.58
2019-03-26T05:06:00.130Z,25.57
2019-03-26T05:08:30.918Z,32.67
2019-03-26T05:11:01.974Z,29.63
2019-03-26T05:13:32.908Z,22.15
2019-03-26T05:16:03.888Z,24.87
2019-03-26T05:18:34.737Z,19.45
2019-03-26T05:21:05.650Z,22.95
2019-03-26T05:23:36.300Z,28.92
2019-03-26T05:26:07.112Z,25.95
2019-03-26T05:28:37.777Z,22.07
2019-03-26T05:31:08.533Z,25.02
2019-03-26T05:33:39.208Z,24.65
2019-03-26T05:36:10.035Z,26.33
2019-03-26T05:38:40.803Z,22.42
2019-03-26T05:41:11.518Z,22.32
2019-03-26T05:43:42.357Z,24.18
2019-03-26T05:46:13.099Z,24.02
2019-03-26T05:48:43.762Z,20.77
2019-03-26T05:51:14.477Z,28.98
2019-03-26T05:53:45.114Z,25.05
2019-03-26T05:56:17.577Z,19.95
2019-03-26T05:58:50.563Z,23.90
2019-03-26T06:01:21.316Z,25.23
2019-03-26T06:03:51.994Z,26.20
2019-03-26T06:06:22.709Z,22.35
2019-03-26T06:08:53.752Z,20.60
2019-03-26T06:11:24.551Z,21.35
2019-03-26T06:13:55.302Z,33.40
2019-03-26T06:16:38.273Z,24.35
2019-03-26T06:19:04.195Z,27.55
2019-03-26T06:21:34.934Z,26.12
2019-03-26T06:24:05.703Z,27.00
2019-03-26T06:26:36.446Z,26.42
2019-03-26T06:29:07.465Z,29.48
2019-03-26T06:31:44.307Z,28.65
2019-03-26T06:34:15.088Z,28.25
2019-03-26T06:36:45.743Z,32.73
2019-03-26T06:39:16.426Z,37.70
2019-03-26T06:41:47.146Z,24.70
2019-03-26T06:44:20.858Z,21.37
2019-03-26T06:46:51.604Z,27.48
2019-03-26T06:49:22.324Z,22.17
2019-03-26T06:51:53.157Z,34.48
2019-03-26T06:54:23.833Z,24.57
2019-03-26T06:56:54.622Z,33.13
2019-03-26T06:59:25.321Z,31.07
2019-03-26T07:01:56.261Z,25.55
2019-03-26T07:04:26.879Z,29.55
2019-03-26T07:06:57.921Z,31.30
2019-03-26T07:09:28.731Z,37.10
2019-03-26T07:11:59.427Z,38.10
2019-03-26T07:14:30.082Z,38.05
2019-03-26T07:17:00.827Z,36.83
2019-03-26T07:19:31.532Z,42.95
2019-03-26T07:22:02.138Z,37.78
2019-03-26T07:24:34.204Z,36.45
2019-03-26T07:27:04.793Z,27.52
2019-03-26T07:29:35.424Z,34.48
2019-03-26T07:32:06.121Z,34.95
2019-03-26T07:34:37.026Z,36.60
2019-03-26T07:37:07.735Z,39.58
2019-03-26T07:39:39.165Z,36.83
2019-03-26T07:42:09.931Z,33.48
2019-03-26T07:44:40.552Z,31.93
2019-03-26T07:47:11.268Z,39.10
2019-03-26T07:49:41.915Z,36.85
2019-03-26T07:52:15.454Z,30.50
2019-03-26T07:54:45.171Z,27.95
2019-03-26T07:57:15.860Z,37.67
2019-03-26T07:59:46.502Z,36.00
2019-03-26T08:02:17.164Z,31.95
2019-03-26T08:04:47.914Z,31.25
2019-03-26T08:07:18.631Z,30.90
2019-03-26T08:09:49.307Z,37.80
2019-03-26T08:12:19.933Z,35.70
2019-03-26T08:14:50.639Z,28.50
2019-03-26T08:17:21.463Z,29.42
2019-03-26T08:19:52.124Z,26.50
2019-03-26T08:22:22.895Z,28.70
2019-03-26T08:24:54.026Z,31.23
2019-03-26T08:27:24.849Z,35.13
2019-03-26T08:29:55.609Z,31.25
2019-03-26T08:32:26.405Z,30.30
2019-03-26T08:34:57.267Z,38.05
2019-03-26T08:37:28.052Z,30.30
2019-03-26T08:39:58.887Z,35.25
2019-03-26T08:42:29.597Z,33.48
2019-03-26T08:45:00.680Z,27.50
2019-03-26T08:47:31.825Z,28.52
2019-03-26T08:50:02.811Z,31.25
2019-03-26T08:52:33.838Z,24.43
2019-03-26T08:55:05.868Z,30.25
2019-03-26T08:57:43.675Z,31.62
2019-03-26T09:00:14.588Z,26.73
2019-03-26T09:02:45.351Z,29.92
2019-03-26T09:05:16.018Z,24.60
2019-03-26T09:07:47.471Z,26.33
2019-03-26T09:10:18.286Z,23.55
2019-03-26T09:12:49.226Z,23.42
2019-03-26T09:15:20.019Z,24.18
2019-03-26T09:17:50.860Z,28.52
2019-03-26T09:20:21.701Z,24.10
2019-03-26T09:22:52.544Z,25.30
2019-03-26T09:25:23.338Z,24.87
2019-03-26T09:27:54.128Z,21.42
2019-03-26T09:30:24.824Z,23.95
2019-03-26T09:32:57.002Z,19.90
2019-03-26T09:35:27.659Z,22.45
2019-03-26T09:37:58.659Z,20.10
2019-03-26T09:40:29.410Z,20.70
2019-03-26T09:43:00.174Z,24.30
2019-03-26T09:45:31.045Z,17.80
2019-03-26T09:48:02.355Z,15.83
2019-03-26T09:50:34.711Z,17.00
2019-03-26T09:53:05.847Z,24.27
2019-03-26T09:55:36.584Z,24.30
2019-03-26T09:58:20.010Z,17.87
2019-03-26T10:00:51.587Z,17.45
2019-03-26T10:03:22.452Z,17.87
2019-03-26T10:05:53.552Z,19.48
2019-03-26T10:08:24.303Z,18.55
2019-03-26T10:10:57.445Z,17.52
2019-03-26T10:13:28.334Z,19.82
2019-03-26T10:16:00.380Z,18.48
2019-03-26T10:18:31.414Z,20.43
2019-03-26T10:21:02.338Z,16.75
2019-03-26T10:23:33.164Z,21.68
2019-03-26T10:26:04.155Z,21.80
2019-03-26T10:28:34.785Z,27.32
2019-03-26T10:31:05.866Z,22.48
2019-03-26T10:33:36.569Z,25.95
2019-03-26T10:36:07.179Z,21.77
2019-03-26T10:38:40.731Z,20.77
2019-03-26T10:41:11.473Z,16.82
2019-03-26T10:43:42.847Z,14.05
2019-03-26T10:46:14.015Z,16.17
2019-03-26T10:48:47.824Z,21.07
2019-03-26T10:51:18.896Z,17.52
2019-03-26T10:53:49.548Z,14.90
2019-03-26T10:56:20.399Z,16.35
2019-03-26T10:58:51.138Z,13.85
2019-03-26T11:01:22.892Z,13.18
2019-03-26T11:03:53.800Z,25.15
2019-03-26T11:06:24.749Z,16.67
2019-03-26T11:08:55.777Z,16.93
2019-03-26T11:11:26.903Z,13.62
2019-03-26T11:13:58.887Z,14.30
2019-03-26T11:16:30.683Z,20.97
2019-03-26T11:19:01.757Z,13.05
2019-03-26T11:21:33.242Z,25.60
2019-03-26T11:24:06.711Z,13.95
2019-03-26T11:26:37.694Z,18.27
2019-03-26T11:29:08.432Z,13.25
2019-03-26T11:31:39.807Z,15.48
2019-03-26T11:34:10.643Z,13.75
2019-03-26T11:36:41.412Z,16.97
2019-03-26T11:39:12.217Z,15.53
2019-03-26T11:41:42.931Z,16.55
2019-03-26T11:44:15.476Z,12.25
2019-03-26T11:46:46.237Z,10.38
2019-03-26T11:49:20.292Z,14.80
2019-03-26T11:51:51.475Z,9.95
2019-03-26T11:54:22.287Z,15.50
2019-03-26T11:56:53.140Z,11.55
2019-03-26T11:59:23.845Z,10.75
2019-03-26T12:01:54.927Z,10.85
2019-03-26T12:04:25.796Z,11.73
2019-03-26T12:06:56.730Z,11.38
2019-03-26T12:09:27.485Z,13.68
2019-03-26T12:12:00.181Z,12.58
2019-03-26T12:14:30.882Z,9.35
2019-03-26T12:17:01.630Z,8.88
2019-03-26T12:19:32.814Z,13.05
2019-03-26T12:22:03.629Z,9.85
2019-03-26T12:24:34.666Z,12.98
2019-03-26T12:27:05.514Z,9.18
2019-03-26T12:29:36.416Z,10.18
2019-03-26T12:32:07.204Z,13.35
2019-03-26T12:34:38.166Z,9.23
2019-03-26T12:37:08.947Z,8.85
2019-03-26T12:39:40.058Z,10.23
2019-03-26T12:42:11.113Z,9.23
2019-03-26T12:44:42.337Z,7.20
2019-03-26T12:47:13.322Z,13.75
2019-03-26T12:49:44.477Z,9.20
2019-03-26T12:52:15.374Z,9.25
2019-03-26T12:54:46.211Z,10.65
2019-03-26T12:57:17.058Z,8.70
2019-03-26T12:59:48.157Z,7.95
2019-03-26T13:02:19.004Z,11.28
2019-03-26T13:04:49.928Z,14.13
2019-03-26T13:07:20.891Z,7.83
2019-03-26T13:09:51.715Z,12.73
2019-03-26T13:12:22.895Z,7.37
2019-03-26T13:14:54.002Z,7.22
2019-03-26T13:17:24.773Z,9.03
2019-03-26T13:19:55.800Z,14.18
2019-03-26T13:22:26.812Z,4.37
2019-03-26T13:24:58.794Z,8.05
2019-03-26T13:27:29.727Z,5.95
2019-03-26T13:30:00.668Z,10.80
2019-03-26T13:32:31.508Z,7.20
2019-03-26T13:35:02.533Z,7.35
2019-03-26T13:37:33.403Z,9.63
2019-03-26T13:40:05.258Z,6.05
2019-03-26T13:42:36.248Z,8.65
2019-03-26T13:45:07.669Z,13.20
2019-03-26T13:47:38.716Z,5.62
2019-03-26T13:50:10.994Z,9.85
2019-03-26T13:52:41.875Z,5.30
2019-03-26T13:55:14.931Z,9.23
2019-03-26T13:57:46.404Z,12.05
2019-03-26T14:00:31.945Z,16.75
2019-03-26T14:03:03.182Z,8.80
2019-03-26T14:05:34.454Z,12.20
2019-03-26T14:08:05.729Z,8.23
2019-03-26T14:10:41.063Z,9.68
2019-03-26T14:13:11.480Z,8.80
2019-03-26T14:15:42.549Z,7.45
2019-03-26T14:18:13.376Z,7.78
2019-03-26T14:20:44.175Z,7.00
2019-03-26T14:23:15.466Z,13.28
2019-03-26T14:25:46.594Z,11.85
2019-03-26T14:28:17.680Z,12.95
2019-03-26T14:30:48.659Z,10.82
2019-03-26T14:33:19.322Z,12.70
2019-03-26T14:35:50.763Z,7.75
2019-03-26T14:38:21.500Z,13.28
2019-03-26T14:40:55.077Z,7.22
2019-03-26T14:43:25.332Z,17.45
2019-03-26T14:45:56.378Z,8.98
2019-03-26T14:48:27.387Z,11.88
2019-03-26T14:50:58.600Z,14.33
2019-03-26T14:53:30.745Z,14.07
2019-03-26T14:56:03.155Z,13.10
2019-03-26T14:58:34.316Z,8.85
2019-03-26T15:01:05.144Z,11.95
2019-03-26T15:03:36.042Z,15.50
2019-03-26T15:06:07.002Z,11.30
2019-03-26T15:08:37.896Z,12.18
2019-03-26T15:11:08.792Z,12.23
2019-03-26T15:13:39.663Z,8.65
2019-03-26T15:16:10.646Z,12.82
2019-03-26T15:18:41.620Z,12.28
2019-03-26T15:21:12.474Z,12.80
2019-03-26T15:23:44.718Z,6.28
2019-03-26T15:26:18.111Z,7.78
2019-03-26T15:28:52.805Z,15.53
2019-03-26T15:31:27.746Z,11.88
2019-03-26T15:33:58.784Z,9.83
2019-03-26T15:36:30.272Z,11.78
2019-03-26T15:39:03.983Z,5.67
2019-03-26T15:41:36.173Z,12.90
2019-03-26T15:44:07.126Z,15.98
2019-03-26T15:46:38.133Z,21.90
2019-03-26T15:49:08.855Z,14.23
2019-03-26T15:51:39.781Z,12.20
2019-03-26T15:54:10.760Z,15.58
2019-03-26T15:56:44.761Z,10.23
2019-03-26T15:59:16.216Z,12.70
2019-03-26T16:01:47.347Z,11.83
2019-03-26T16:04:19.387Z,11.35
2019-03-26T16:06:50.378Z,13.20
2019-03-26T16:09:22.727Z,12.55
2019-03-26T16:11:54.228Z,19.25
2019-03-26T16:14:28.221Z,18.05
2019-03-26T16:16:59.572Z,16.70
2019-03-26T16:19:32.868Z,16.12
2019-03-26T16:22:04.509Z,12.82
2019-03-26T16:24:37.054Z,16.52
2019-03-26T16:27:08.927Z,13.00
2019-03-26T16:29:40.205Z,17.87
2019-03-26T16:32:11.098Z,15.83
2019-03-26T16:34:42.278Z,20.40
2019-03-26T16:37:13.800Z,28.52
2019-03-26T16:39:44.914Z,30.45
2019-03-26T16:42:16.258Z,18.92
2019-03-26T16:44:51.646Z,29.30
2019-03-26T16:47:22.549Z,27.00
2019-03-26T16:49:54.612Z,32.53
2019-03-26T16:52:26.761Z,25.00
2019-03-26T16:54:58.527Z,29.02
2019-03-26T16:57:29.778Z,32.67
2019-03-26T17:00:00.944Z,25.08
2019-03-26T17:02:31.937Z,22.20
2019-03-26T17:05:03.051Z,30.48
2019-03-26T17:07:34.074Z,25.35
2019-03-26T17:10:07.915Z,29.02
2019-03-26T17:12:39.278Z,15.80
2019-03-26T17:15:10.500Z,15.63
2019-03-26T17:17:41.573Z,27.73
2019-03-26T17:20:12.494Z,22.60
2019-03-26T17:22:43.702Z,28.80
2019-03-26T17:25:14.796Z,25.37
2019-03-26T17:27:45.693Z,22.98
2019-03-26T17:30:17.009Z,27.10
2019-03-26T17:32:48.021Z,27.93
2019-03-26T17:35:19.240Z,30.80
2019-03-26T17:37:59.443Z,27.15
2019-03-26T17:40:23.032Z,25.90
2019-03-26T17:42:54.143Z,31.10
2019-03-26T17:45:25.471Z,22.93
2019-03-26T17:47:56.659Z,23.52
2019-03-26T17:50:27.664Z,20.25
2019-03-26T17:52:58.978Z,25.48
2019-03-26T17:55:30.353Z,22.67
2019-03-26T17:58:02.736Z,24.72
2019-03-26T18:00:45.542Z,32.08
2019-03-26T18:03:26.429Z,23.47
2019-03-26T18:05:50.396Z,25.32
2019-03-26T18:08:22.259Z,23.38
2019-03-26T18:10:55.952Z,25.08
2019-03-26T18:13:27.231Z,31.57
2019-03-26T18:15:58.894Z,21.90
2019-03-26T18:18:29.836Z,20.92
2019-03-26T18:21:00.899Z,19.73
2019-03-26T18:23:33.208Z,23.15
2019-03-26T18:26:04.060Z,20.95
2019-03-26T18:28:41.981Z,22.87
2019-03-26T18:31:16.844Z,29.37
2019-03-26T18:33:48.660Z,26.50
2019-03-26T18:36:26.283Z,26.85
2019-03-26T18:39:00.303Z,21.40
2019-03-26T18:41:40.511Z,35.30
2019-03-26T18:44:12.211Z,24.92
2019-03-26T18:46:44.664Z,31.00
2019-03-26T18:49:31.469Z,25.30
2019-03-26T18:52:06.168Z,20.65
2019-03-26T18:55:08.231Z,31.95
2019-03-26T18:57:52.090Z,21.42
2019-03-26T19:00:41.287Z,21.50
2019-03-26T19:03:13.107Z,20.08
2019-03-26T19:05:44.447Z,26.23
2019-03-26T19:08:16.931Z,32.95
2019-03-26T19:10:48.247Z,25.27
2019-03-26T19:13:22.351Z,20.00
2019-03-26T19:16:07.599Z,25.25
2019-03-26T19:18:41.278Z,22.67
2019-03-26T19:21:25.762Z,20.45
2019-03-26T19:24:04.037Z,18.92
2019-03-26T19:26:33.470Z,22.62
2019-03-26T19:29:08.148Z,22.58
2019-03-26T19:31:39.493Z,21.75
2019-03-26T19:34:12.764Z,20.12
2019-03-26T19:36:44.140Z,19.77
2019-03-26T19:39:15.674Z,18.17
2019-03-26T19:41:46.990Z,27.50
2019-03-26T19:44:18.884Z,28.83
2019-03-26T19:46:50.155Z,31.50
2019-03-26T19:49:21.278Z,24.92
2019-03-26T19:51:52.352Z,21.70
2019-03-26T19:54:23.970Z,19.75
2019-03-26T19:56:57.141Z,22.15
2019-03-26T19:59:28.466Z,22.60
2019-03-26T20:01:59.641Z,25.62
2019-03-26T20:04:33.163Z,25.48
2019-03-26T20:07:09.266Z,23.60
2019-03-26T20:09:40.876Z,22.42
2019-03-26T20:12:12.275Z,26.55
2019-03-26T20:14:43.784Z,24.70
2019-03-26T20:17:15.226Z,19.27
2019-03-26T20:19:46.748Z,20.45
2019-03-26T20:22:20.549Z,25.88
2019-03-26T20:24:55.798Z,24.00
2019-03-26T20:27:28.768Z,26.60
2019-03-26T20:30:00.576Z,18.23
2019-03-26T20:32:32.720Z,25.65
2019-03-26T20:35:12.103Z,32.40
2019-03-26T20:37:47.921Z,26.20
2019-03-26T20:40:27.715Z,22.73
2019-03-26T20:43:02.069Z,19.75
2019-03-26T20:45:33.200Z,24.85
2019-03-26T20:48:32.054Z,18.42
2019-03-26T20:51:03.380Z,20.85
2019-03-26T20:53:34.677Z,21.97
2019-03-26T20:56:06.134Z,20.68
2019-03-26T20:58:39.480Z,25.48
2019-03-26T21:01:11.501Z,21.68
2019-03-26T21:03:46.282Z,26.73
2019-03-26T21:06:18.850Z,22.80
2019-03-26T21:08:51.732Z,22.77
2019-03-26T21:11:25.282Z,28.62
2019-03-26T21:13:57.021Z,20.70
2019-03-26T21:16:28.464Z,24.40
2019-03-26T21:19:00.063Z,28.95
2019-03-26T21:21:31.634Z,22.93
2019-03-26T21:24:03.128Z,23.18
2019-03-26T21:26:37.569Z,18.85
2019-03-26T21:29:12.497Z,26.57
2019-03-26T21:31:46.185Z,22.40
2019-03-26T21:34:29.856Z,21.73
2019-03-26T21:36:50.997Z,24.12
2019-03-26T21:39:23.160Z,28.42
2019-03-26T21:41:54.628Z,23.02
2019-03-26T21:44:29.564Z,23.15
2019-03-26T21:47:01.653Z,25.48
2019-03-26T21:49:34.599Z,28.00
2019-03-26T21:52:08.412Z,28.00
2019-03-26T21:54:40.285Z,26.73
2019-03-26T21:57:13.140Z,31.12
2019-03-26T21:59:46.457Z,24.05
2019-03-26T22:02:18.808Z,22.70
2019-03-26T22:04:57.683Z,25.70
2019-03-26T22:07:30.434Z,23.47
2019-03-26T22:10:03.045Z,22.05
2019-03-26T22:12:37.638Z,26.40
2019-03-26T22:15:10.639Z,23.55
2019-03-26T22:17:44.666Z,20.12
2019-03-26T22:20:27.962Z,21.07
2019-03-26T22:23:03.820Z,25.10
2019-03-26T22:25:36.731Z,25.12
2019-03-26T22:28:10.836Z,22.80
2019-03-26T22:30:42.098Z,19.55
2019-03-26T22:33:20.466Z,20.88
2019-03-26T22:35:52.256Z,28.25
2019-03-26T22:38:25.805Z,24.47
2019-03-26T22:40:57.602Z,23.87
2019-03-26T22:43:37.250Z,21.87
2019-03-26T22:46:09.329Z,21.35
2019-03-26T22:48:41.412Z,19.32
2019-03-26T22:51:14.134Z,21.85
2019-03-26T22:53:46.040Z,21.68
2019-03-26T22:56:25.006Z,22.70
2019-03-26T22:58:58.152Z,22.35
2019-03-26T23:01:30.466Z,24.65
2019-03-26T23:04:01.662Z,24.37
2019-03-26T23:06:36.540Z,23.40
2019-03-26T23:09:09.555Z,21.40
2019-03-26T23:11:41.112Z,26.50
2019-03-26T23:14:13.378Z,23.42
2019-03-26T23:16:44.885Z,21.07
2019-03-26T23:19:17.309Z,15.90
2019-03-26T23:21:48.780Z,22.73
2019-03-26T23:24:20.347Z,18.17
2019-03-26T23:26:53.750Z,21.60
2019-03-26T23:29:25.471Z,22.42
2019-03-26T23:31:57.784Z,22.10
2019-03-26T23:34:29.606Z,33.45
2019-03-26T23:37:05.422Z,17.12
2019-03-26T23:39:36.731Z,22.55
2019-03-26T23:42:08.412Z,19.15
2019-03-26T23:44:39.604Z,19.55
2019-03-26T23:47:11.187Z,20.20
2019-03-26T23:49:43.813Z,22.77
2019-03-26T23:52:15.418Z,21.65
2019-03-26T23:54:47.057Z,21.25
2019-03-26T23:57:18.935Z,22.05
2019-03-26T23:59:50.394Z,27.25
